createdAt,value
2018-02-11T00:00:05.223Z,1006.38
2018-02-11T00:01:15.175Z,1006.42
2018-02-11T00:02:24.877Z,1006.46
2018-02-11T00:03:34.568Z,1006.39
2018-02-11T00:04:44.506Z,1006.39
2018-02-11T00:05:53.959Z,1006.4
2018-02-11T00:07:03.648Z,1006.36
2018-02-11T00:08:13.352Z,1006.33
2018-02-11T00:09:23.298Z,1006.35
2018-02-11T00:10:33.245Z,1006.27
2018-02-11T00:11:43.208Z,1006.34
2018-02-11T00:12:53.161Z,1006.31
2018-02-11T00:14:02.870Z,1006.32
2018-02-11T00:15:12.825Z,1006.29
2018-02-11T00:16:22.773Z,1006.28
2018-02-11T00:17:32.214Z,1006.23
2018-02-11T00:18:41.902Z,1006.26
2018-02-11T00:19:51.846Z,1006.19
2018-02-11T00:21:01.808Z,1006.24
2018-02-11T00:22:11.756Z,1006.19
2018-02-11T00:23:21.687Z,1006.22
2018-02-11T00:24:30.863Z,1006.19
2018-02-11T00:25:40.811Z,1006.18
2018-02-11T00:26:50.515Z,1006.2
2018-02-11T00:28:00.213Z,1006.18
2018-02-11T00:29:09.902Z,1006.11
2018-02-11T00:30:19.859Z,1006.09
2018-02-11T00:31:29.796Z,1006.13
2018-02-11T00:32:39.481Z,1006.1
2018-02-11T00:33:49.436Z,1006.09
2018-02-11T00:34:59.122Z,1006.05
2018-02-11T00:36:09.078Z,1006.07
2018-02-11T00:37:19.043Z,1006.04
2018-02-11T00:38:29.000Z,1006.03
2018-02-11T00:39:38.444Z,1006.03
2018-02-11T00:40:48.397Z,1006.01
2018-02-11T00:41:58.090Z,1005.99
2018-02-11T00:43:07.802Z,1005.99
2018-02-11T00:44:17.753Z,1005.96
2018-02-11T00:45:27.691Z,1005.97
2018-02-11T00:46:37.654Z,1005.96
2018-02-11T00:47:47.099Z,1005.92
2018-02-11T00:48:56.780Z,1005.91
2018-02-11T00:50:06.721Z,1005.9
2018-02-11T00:51:16.666Z,1005.92
2018-02-11T00:52:26.111Z,1005.87
2018-02-11T00:53:35.801Z,1005.89
2018-02-11T00:54:45.750Z,1005.83
2018-02-11T00:55:55.695Z,1005.81
2018-02-11T00:57:05.383Z,1005.81
2018-02-11T00:58:15.093Z,1005.77
2018-02-11T00:59:25.055Z,1005.77
2018-02-11T01:00:34.501Z,1005.75
2018-02-11T01:01:44.467Z,1005.71
2018-02-11T01:02:53.910Z,1005.67
2018-02-11T01:04:03.902Z,1005.66
2018-02-11T01:05:13.863Z,1005.66
2018-02-11T01:06:23.808Z,1005.67
2018-02-11T01:07:33.756Z,1005.63
2018-02-11T01:08:43.705Z,1005.64
2018-02-11T01:09:53.404Z,1005.59
2018-02-11T01:11:03.357Z,1005.61
2018-02-11T01:12:13.033Z,1005.58
2018-02-11T01:13:22.990Z,1005.54
2018-02-11T01:14:32.678Z,1005.54
2018-02-11T01:15:42.618Z,1005.51
2018-02-11T01:16:52.563Z,1005.53
2018-02-11T01:18:02.516Z,1005.48
2018-02-11T01:19:12.205Z,1005.5
2018-02-11T01:20:21.928Z,1005.47
2018-02-11T01:21:31.874Z,1005.46
2018-02-11T01:22:41.573Z,1005.49
2018-02-11T01:23:51.530Z,1005.49
2018-02-11T01:25:01.485Z,1005.48
2018-02-11T01:26:11.437Z,1005.44
2018-02-11T01:27:21.111Z,1005.45
2018-02-11T01:28:30.789Z,1005.49
2018-02-11T01:29:40.703Z,1005.42
2018-02-11T01:30:50.710Z,1005.42
2018-02-11T01:32:00.663Z,1005.39
2018-02-11T01:33:10.359Z,1005.4
2018-02-11T01:34:20.300Z,1005.38
2018-02-11T01:35:30.241Z,1005.39
2018-02-11T01:36:40.192Z,1005.32
2018-02-11T01:37:50.172Z,1005.3
2018-02-11T01:39:00.125Z,1005.3
2018-02-11T01:40:09.827Z,1005.2
2018-02-11T01:41:19.517Z,1005.24
2018-02-11T01:42:29.461Z,1005.16
2018-02-11T01:43:39.428Z,1005.18
2018-02-11T01:44:49.110Z,1005.21
2018-02-11T01:45:58.549Z,1005.19
2018-02-11T01:47:08.512Z,1005.08
2018-02-11T01:48:18.452Z,1005.15
2018-02-11T01:49:28.405Z,1005.13
2018-02-11T01:50:38.113Z,1005.09
2018-02-11T01:51:48.064Z,1005.11
2018-02-11T01:52:57.766Z,1005.08
2018-02-11T01:54:07.725Z,1005.09
2018-02-11T01:55:17.660Z,1005
2018-02-11T01:56:27.601Z,1005.01
2018-02-11T01:57:37.558Z,1005.01
2018-02-11T01:58:47.237Z,1005.01
2018-02-11T01:59:57.180Z,1005.05
2018-02-11T02:01:06.877Z,1004.96
2018-02-11T02:02:16.844Z,1004.95
2018-02-11T02:03:26.545Z,1004.91
2018-02-11T02:04:36.489Z,1004.93
2018-02-11T02:05:46.187Z,1004.91
2018-02-11T02:06:56.134Z,1004.91
2018-02-11T02:08:05.842Z,1004.86
2018-02-11T02:09:15.785Z,1004.85
2018-02-11T02:10:25.228Z,1004.88
2018-02-11T02:11:35.171Z,1004.84
2018-02-11T02:12:45.167Z,1004.82
2018-02-11T02:13:54.860Z,1004.74
2018-02-11T02:15:04.823Z,1004.74
2018-02-11T02:16:14.508Z,1004.68
2018-02-11T02:17:24.190Z,1004.69
2018-02-11T02:18:34.140Z,1004.64
2018-02-11T02:19:44.076Z,1004.66
2018-02-11T02:20:54.026Z,1004.64
2018-02-11T02:22:03.972Z,1004.63
2018-02-11T02:23:13.916Z,1004.62
2018-02-11T02:24:23.859Z,1004.6
2018-02-11T02:25:33.810Z,1004.55
2018-02-11T02:26:43.769Z,1004.55
2018-02-11T02:27:53.213Z,1004.5
2018-02-11T02:29:03.152Z,1004.53
2018-02-11T02:30:13.094Z,1004.46
2018-02-11T02:31:23.043Z,1004.47
2018-02-11T02:32:32.986Z,1004.48
2018-02-11T02:33:42.675Z,1004.46
2018-02-11T02:34:52.612Z,1004.45
2018-02-11T02:36:02.317Z,1004.41
2018-02-11T02:37:12.275Z,1004.36
2018-02-11T02:38:21.967Z,1004.34
2018-02-11T02:39:31.666Z,1004.34
2018-02-11T02:40:42.009Z,1004.33
2018-02-11T02:41:51.704Z,1004.27
2018-02-11T02:43:01.660Z,1004.24
2018-02-11T02:44:11.606Z,1004.25
2018-02-11T02:45:21.554Z,1004.16
2018-02-11T02:46:31.249Z,1004.15
2018-02-11T02:47:40.949Z,1004.13
2018-02-11T02:48:50.891Z,1004.1
2018-02-11T02:50:00.591Z,1004.02
2018-02-11T02:51:10.567Z,1004.03
2018-02-11T02:52:20.526Z,1003.99
2018-02-11T02:53:30.470Z,1003.96
2018-02-11T02:54:40.161Z,1003.99
2018-02-11T02:55:50.118Z,1003.96
2018-02-11T02:57:00.059Z,1003.9
2018-02-11T02:58:09.777Z,1003.91
2018-02-11T02:59:19.502Z,1003.93
2018-02-11T03:00:29.268Z,1003.85
2018-02-11T03:01:39.209Z,1003.88
2018-02-11T03:02:48.884Z,1003.9
2018-02-11T03:03:58.592Z,1003.97
2018-02-11T03:05:08.534Z,1003.87
2018-02-11T03:06:18.218Z,1003.86
2018-02-11T03:07:27.904Z,1003.86
2018-02-11T03:08:37.592Z,1003.86
2018-02-11T03:09:47.274Z,1003.86
2018-02-11T03:10:57.213Z,1003.85
2018-02-11T03:12:07.154Z,1003.8
2018-02-11T03:21:07.221Z,1003.74
2018-02-11T03:22:17.168Z,1003.78
2018-02-11T03:23:27.109Z,1003.73
2018-02-11T03:24:37.057Z,1003.73
2018-02-11T03:25:46.996Z,1003.7
2018-02-11T03:26:56.928Z,1003.71
2018-02-11T03:28:06.610Z,1003.7
2018-02-11T03:29:16.559Z,1003.68
2018-02-11T03:30:26.243Z,1003.69
2018-02-11T03:31:35.935Z,1003.71
2018-02-11T03:32:45.890Z,1003.63
2018-02-11T03:33:55.855Z,1003.61
2018-02-11T03:35:05.555Z,1003.6
2018-02-11T03:36:15.497Z,1003.57
2018-02-11T03:37:25.447Z,1003.57
2018-02-11T03:38:35.398Z,1003.56
2018-02-11T03:39:45.335Z,1003.5
2018-02-11T03:40:55.026Z,1003.49
2018-02-11T03:42:04.975Z,1003.44
2018-02-11T03:43:14.410Z,1003.43
2018-02-11T03:44:23.843Z,1003.41
2018-02-11T03:45:33.796Z,1003.43
2018-02-11T03:46:43.758Z,1003.39
2018-02-11T03:47:53.704Z,1003.35
2018-02-11T03:49:03.651Z,1003.33
2018-02-11T03:50:13.607Z,1003.28
2018-02-11T03:51:23.555Z,1003.26
2018-02-11T03:52:33.496Z,1003.19
2018-02-11T03:53:43.443Z,1003.17
2018-02-11T03:54:53.141Z,1003.15
2018-02-11T03:56:03.087Z,1003.13
2018-02-11T03:57:13.036Z,1003.13
2018-02-11T03:58:22.772Z,1003.12
2018-02-11T03:59:32.719Z,1003.07
2018-02-11T04:00:42.657Z,1003.06
2018-02-11T04:01:52.597Z,1003.05
2018-02-11T04:03:02.542Z,1003.09
2018-02-11T04:04:12.235Z,1003.05
2018-02-11T04:05:21.671Z,1003.07
2018-02-11T04:06:31.615Z,1003.02
2018-02-11T04:07:41.564Z,1002.99
2018-02-11T04:08:51.503Z,1002.99
2018-02-11T04:10:01.184Z,1002.96
2018-02-11T04:11:11.122Z,1003.01
2018-02-11T04:12:20.877Z,1002.9
2018-02-11T04:13:30.586Z,1002.91
2018-02-11T04:14:40.526Z,1002.92
2018-02-11T04:15:50.228Z,1002.9
2018-02-11T04:17:00.167Z,1002.86
2018-02-11T04:18:09.868Z,1002.86
2018-02-11T04:19:19.559Z,1002.89
2018-02-11T04:20:29.506Z,1002.87
2018-02-11T04:21:38.972Z,1002.83
2018-02-11T04:22:48.660Z,1002.83
2018-02-11T04:23:58.351Z,1002.77
2018-02-11T04:25:08.306Z,1002.78
2018-02-11T04:26:18.040Z,1002.82
2018-02-11T04:27:28.035Z,1002.73
2018-02-11T04:28:37.979Z,1002.71
2018-02-11T04:29:47.930Z,1002.67
2018-02-11T04:30:57.875Z,1002.66
2018-02-11T04:32:07.311Z,1002.69
2018-02-11T04:33:16.994Z,1002.69
2018-02-11T04:34:26.429Z,1002.67
2018-02-11T04:35:36.373Z,1002.7
2018-02-11T04:36:46.320Z,1002.64
2018-02-11T04:37:56.272Z,1002.65
2018-02-11T04:39:06.462Z,1002.66
2018-02-11T04:40:16.399Z,1002.63
2018-02-11T04:41:26.087Z,1002.58
2018-02-11T04:42:36.028Z,1002.56
2018-02-11T04:43:45.462Z,1002.6
2018-02-11T04:44:55.465Z,1002.59
2018-02-11T04:46:05.160Z,1002.6
2018-02-11T04:47:15.097Z,1002.56
2018-02-11T04:48:24.783Z,1002.59
2018-02-11T04:49:34.722Z,1002.58
2018-02-11T04:50:44.660Z,1002.56
2018-02-11T04:51:54.347Z,1002.53
2018-02-11T04:53:04.292Z,1002.54
2018-02-11T04:54:14.231Z,1002.55
2018-02-11T04:55:24.164Z,1002.52
2018-02-11T04:56:33.604Z,1002.56
2018-02-11T04:57:43.549Z,1002.52
2018-02-11T04:58:53.496Z,1002.49
2018-02-11T05:00:02.926Z,1002.47
2018-02-11T05:01:12.874Z,1002.44
2018-02-11T05:02:22.814Z,1002.48
2018-02-11T05:03:32.743Z,1002.44
2018-02-11T05:04:42.691Z,1002.44
2018-02-11T05:05:52.640Z,1002.44
2018-02-11T05:07:02.644Z,1002.42
2018-02-11T05:08:12.337Z,1002.35
2018-02-11T05:09:22.278Z,1002.36
2018-02-11T05:10:31.956Z,1002.36
2018-02-11T05:11:41.641Z,1002.32
2018-02-11T05:12:51.580Z,1002.31
2018-02-11T05:14:01.005Z,1002.27
2018-02-11T05:15:10.944Z,1002.28
2018-02-11T05:16:20.625Z,1002.31
2018-02-11T05:17:30.574Z,1002.3
2018-02-11T05:18:40.507Z,1002.28
2018-02-11T05:19:50.193Z,1002.25
2018-02-11T05:21:00.142Z,1002.22
2018-02-11T05:22:10.093Z,1002.19
2018-02-11T05:23:20.034Z,1002.22
2018-02-11T05:24:29.966Z,1002.17
2018-02-11T05:25:39.391Z,1002.18
2018-02-11T05:26:49.337Z,1002.15
2018-02-11T05:27:59.319Z,1002.16
2018-02-11T05:29:09.257Z,1002.09
2018-02-11T05:30:18.949Z,1002.11
2018-02-11T05:31:28.889Z,1002.04
2018-02-11T05:32:38.828Z,1002.02
2018-02-11T05:33:48.775Z,1002.01
2018-02-11T05:34:58.713Z,1001.99
2018-02-11T05:36:08.665Z,1001.99
2018-02-11T05:37:18.609Z,1001.97
2018-02-11T05:38:28.294Z,1001.92
2018-02-11T05:39:38.233Z,1001.9
2018-02-11T05:40:48.427Z,1001.85
2018-02-11T05:41:58.111Z,1001.85
2018-02-11T05:43:08.046Z,1001.84
2018-02-11T05:44:17.988Z,1001.78
2018-02-11T05:45:27.934Z,1001.71
2018-02-11T05:46:37.869Z,1001.77
2018-02-11T05:47:47.811Z,1001.67
2018-02-11T05:48:57.744Z,1001.66
2018-02-11T05:50:07.440Z,1001.64
2018-02-11T05:51:17.392Z,1001.6
2018-02-11T05:52:27.326Z,1001.59
2018-02-11T05:53:37.013Z,1001.61
2018-02-11T05:54:46.955Z,1001.58
2018-02-11T05:55:56.899Z,1001.58
2018-02-11T05:57:06.325Z,1001.54
2018-02-11T05:58:16.006Z,1001.58
2018-02-11T05:59:25.951Z,1001.49
2018-02-11T06:00:35.889Z,1001.52
2018-02-11T06:01:45.317Z,1001.49
2018-02-11T06:02:55.053Z,1001.53
2018-02-11T06:04:04.750Z,1001.5
2018-02-11T06:05:13.930Z,1001.52
2018-02-11T06:06:23.868Z,1001.52
2018-02-11T06:07:33.549Z,1001.47
2018-02-11T06:08:43.506Z,1001.46
2018-02-11T06:09:53.458Z,1001.49
2018-02-11T06:11:03.402Z,1001.44
2018-02-11T06:12:13.346Z,1001.39
2018-02-11T06:13:23.280Z,1001.41
2018-02-11T06:14:32.979Z,1001.39
2018-02-11T06:15:42.916Z,1001.31
2018-02-11T06:16:52.857Z,1001.34
2018-02-11T06:18:02.555Z,1001.36
2018-02-11T06:19:12.281Z,1001.35
2018-02-11T06:20:22.227Z,1001.31
2018-02-11T06:21:32.316Z,1001.28
2018-02-11T06:22:42.267Z,1001.33
2018-02-11T06:23:52.210Z,1001.21
2018-02-11T06:25:01.896Z,1001.27
2018-02-11T06:26:11.323Z,1001.22
2018-02-11T06:27:21.316Z,1001.29
2018-02-11T06:28:30.944Z,1001.25
2018-02-11T06:29:40.892Z,1001.24
2018-02-11T06:30:50.825Z,1001.25
2018-02-11T06:32:00.760Z,1001.21
2018-02-11T06:33:10.733Z,1001.24
2018-02-11T06:34:20.686Z,1001.22
2018-02-11T06:35:30.370Z,1001.14
2018-02-11T06:36:40.310Z,1001.2
2018-02-11T06:37:50.261Z,1001.2
2018-02-11T06:39:00.232Z,1001.12
2018-02-11T06:40:10.201Z,1001.15
2018-02-11T06:41:19.897Z,1001.15
2018-02-11T06:42:29.949Z,1001.15
2018-02-11T06:43:39.638Z,1001.12
2018-02-11T06:44:49.576Z,1001.1
2018-02-11T06:45:59.514Z,1001.1
2018-02-11T06:47:09.447Z,1001.05
2018-02-11T06:48:18.874Z,1001.09
2018-02-11T06:49:28.816Z,1001.06
2018-02-11T06:50:38.516Z,1001.03
2018-02-11T06:51:48.461Z,1001.09
2018-02-11T06:52:58.408Z,1001.01
2018-02-11T06:54:08.384Z,1000.98
2018-02-11T06:55:18.331Z,1000.96
2018-02-11T06:56:28.274Z,1000.97
2018-02-11T06:57:38.224Z,1000.94
2018-02-11T06:58:48.227Z,1000.93
2018-02-11T06:59:58.178Z,1000.9
2018-02-11T07:01:08.175Z,1000.92
2018-02-11T07:02:18.124Z,1000.87
2018-02-11T07:03:28.081Z,1000.87
2018-02-11T07:04:38.025Z,1000.87
2018-02-11T07:05:47.960Z,1000.86
2018-02-11T07:06:57.916Z,1000.86
2018-02-11T07:08:07.610Z,1000.85
2018-02-11T07:09:17.564Z,1000.92
2018-02-11T07:10:27.502Z,1000.94
2018-02-11T07:11:37.442Z,1000.9
2018-02-11T07:12:47.390Z,1000.93
2018-02-11T07:13:57.087Z,1000.89
2018-02-11T07:15:06.532Z,1000.85
2018-02-11T07:16:16.471Z,1000.86
2018-02-11T07:17:26.406Z,1000.79
2018-02-11T07:18:36.359Z,1000.84
2018-02-11T07:19:46.310Z,1000.82
2018-02-11T07:20:56.269Z,1000.78
2018-02-11T07:22:06.214Z,1000.79
2018-02-11T07:23:15.903Z,1000.8
2018-02-11T07:24:25.860Z,1000.82
2018-02-11T07:25:35.804Z,1000.75
2018-02-11T07:26:45.752Z,1000.75
2018-02-11T07:27:55.447Z,1000.73
2018-02-11T07:29:05.390Z,1000.74
2018-02-11T07:30:15.329Z,1000.67
2018-02-11T07:31:25.271Z,1000.63
2018-02-11T07:32:35.221Z,1000.54
2018-02-11T07:33:44.909Z,1000.57
2018-02-11T07:34:54.611Z,1000.59
2018-02-11T07:36:04.564Z,1000.57
2018-02-11T07:37:14.527Z,1000.66
2018-02-11T07:38:24.218Z,1000.62
2018-02-11T07:39:34.196Z,1000.63
2018-02-11T07:40:44.134Z,1000.62
2018-02-11T07:41:53.829Z,1000.57
2018-02-11T07:43:03.820Z,1000.59
2018-02-11T07:44:13.787Z,1000.57
2018-02-11T07:45:23.757Z,1000.53
2018-02-11T07:46:33.705Z,1000.46
2018-02-11T07:47:43.664Z,1000.46
2018-02-11T07:48:53.613Z,1000.53
2018-02-11T07:50:03.575Z,1000.48
2018-02-11T07:51:13.525Z,1000.5
2018-02-11T07:52:23.218Z,1000.43
2018-02-11T07:53:33.152Z,1000.45
2018-02-11T07:54:43.123Z,1000.47
2018-02-11T07:55:53.074Z,1000.42
2018-02-11T07:57:02.530Z,1000.4
2018-02-11T07:58:12.217Z,1000.41
2018-02-11T07:59:21.960Z,1000.36
2018-02-11T08:00:31.903Z,1000.31
2018-02-11T08:01:41.872Z,1000.34
2018-02-11T08:02:51.815Z,1000.36
2018-02-11T08:04:01.763Z,1000.34
2018-02-11T08:05:11.713Z,1000.35
2018-02-11T08:06:21.669Z,1000.23
2018-02-11T08:07:31.105Z,1000.27
2018-02-11T08:08:41.056Z,1000.2
2018-02-11T08:09:50.256Z,1000.12
2018-02-11T08:11:00.207Z,1000.09
2018-02-11T08:12:10.228Z,1000.07
2018-02-11T08:13:19.958Z,1000.1
2018-02-11T08:14:29.654Z,1000.12
2018-02-11T08:15:39.596Z,999.92
2018-02-11T08:16:49.290Z,999.8
2018-02-11T08:17:59.236Z,999.93
2018-02-11T08:19:09.188Z,999.87
2018-02-11T08:20:18.884Z,999.91
2018-02-11T08:21:28.839Z,999.91
2018-02-11T08:22:38.800Z,999.9
2018-02-11T08:23:48.485Z,999.78
2018-02-11T08:24:58.453Z,999.85
2018-02-11T08:26:08.420Z,999.81
2018-02-11T08:27:18.370Z,999.89
2018-02-11T08:28:28.329Z,999.88
2018-02-11T08:29:37.765Z,999.83
2018-02-11T08:30:47.189Z,999.82
2018-02-11T08:31:57.141Z,999.81
2018-02-11T08:33:06.881Z,999.77
2018-02-11T08:34:16.578Z,999.73
2018-02-11T08:35:26.535Z,999.74
2018-02-11T08:36:36.485Z,999.72
2018-02-11T08:37:46.441Z,999.75
2018-02-11T08:38:56.391Z,999.71
2018-02-11T08:40:06.348Z,999.73
2018-02-11T08:41:16.033Z,999.66
2018-02-11T08:42:25.984Z,999.65
2018-02-11T08:43:35.924Z,999.66
2018-02-11T08:44:45.890Z,999.62
2018-02-11T08:45:55.590Z,999.63
2018-02-11T08:47:05.031Z,999.62
2018-02-11T08:48:14.731Z,999.59
2018-02-11T08:49:24.680Z,999.53
2018-02-11T08:50:34.619Z,999.54
2018-02-11T08:51:44.583Z,999.46
2018-02-11T08:52:54.543Z,999.48
2018-02-11T08:54:04.494Z,999.41
2018-02-11T08:55:14.450Z,999.37
2018-02-11T08:56:24.402Z,999.37
2018-02-11T08:57:34.349Z,999.32
2018-02-11T08:58:44.040Z,999.31
2018-02-11T08:59:53.987Z,999.3
2018-02-11T09:01:03.685Z,999.24
2018-02-11T09:02:13.382Z,999.25
2018-02-11T09:03:23.329Z,999.27
2018-02-11T09:04:32.770Z,999.19
2018-02-11T09:05:42.457Z,999.13
2018-02-11T09:06:52.411Z,999.09
2018-02-11T09:08:02.362Z,999.08
2018-02-11T09:09:12.068Z,998.98
2018-02-11T09:10:21.785Z,999.02
2018-02-11T09:11:31.747Z,999.11
2018-02-11T09:12:41.436Z,999.07
2018-02-11T09:13:50.981Z,999.03
2018-02-11T09:15:00.931Z,998.98
2018-02-11T09:16:10.651Z,998.93
2018-02-11T09:17:20.608Z,999.02
2018-02-11T09:18:30.563Z,998.96
2018-02-11T09:19:40.260Z,998.97
2018-02-11T09:20:50.210Z,998.86
2018-02-11T09:22:00.162Z,998.92
2018-02-11T09:23:10.139Z,998.84
2018-02-11T09:24:20.081Z,998.87
2018-02-11T09:25:29.772Z,998.85
2018-02-11T09:26:39.458Z,998.75
2018-02-11T09:27:49.403Z,998.78
2018-02-11T09:28:59.364Z,998.77
2018-02-11T09:30:09.318Z,998.76
2018-02-11T09:31:19.288Z,998.73
2018-02-11T09:32:29.238Z,998.67
2018-02-11T09:33:39.191Z,998.67
2018-02-11T09:34:49.134Z,998.57
2018-02-11T09:35:58.579Z,998.56
2018-02-11T09:37:08.537Z,998.51
2018-02-11T09:38:18.487Z,998.53
2018-02-11T09:39:28.437Z,998.48
2018-02-11T09:40:38.158Z,998.46
2018-02-11T09:41:47.858Z,998.46
2018-02-11T09:42:57.308Z,998.4
2018-02-11T09:44:07.256Z,998.51
2018-02-11T09:45:17.220Z,998.43
2018-02-11T09:46:27.169Z,998.41
2018-02-11T09:47:36.609Z,998.34
2018-02-11T09:48:46.322Z,998.23
2018-02-11T09:49:56.011Z,998.3
2018-02-11T09:51:05.977Z,998.22
2018-02-11T09:52:15.921Z,998.19
2018-02-11T09:53:25.863Z,998.22
2018-02-11T09:54:35.833Z,998.19
2018-02-11T09:55:45.525Z,998.14
2018-02-11T09:56:55.504Z,998.15
2018-02-11T09:58:05.493Z,998.11
2018-02-11T09:59:15.443Z,998.07
2018-02-11T10:00:25.131Z,998.03
2018-02-11T10:01:35.078Z,998.03
2018-02-11T10:02:44.767Z,998.03
2018-02-11T10:03:54.719Z,998.03
2018-02-11T10:05:04.677Z,997.97
2018-02-11T10:06:14.626Z,998.06
2018-02-11T10:07:24.616Z,997.98
2018-02-11T10:08:34.323Z,997.98
2018-02-11T10:09:44.278Z,997.94
2018-02-11T10:10:54.243Z,997.89
2018-02-11T10:12:04.193Z,997.87
2018-02-11T10:13:13.877Z,997.79
2018-02-11T10:14:23.835Z,997.75
2018-02-11T10:15:33.802Z,997.83
2018-02-11T10:16:43.502Z,997.79
2018-02-11T10:17:53.459Z,997.79
2018-02-11T10:19:03.154Z,997.78
2018-02-11T10:20:13.163Z,997.72
2018-02-11T10:21:22.866Z,997.75
2018-02-11T10:22:32.823Z,997.74
2018-02-11T10:23:42.773Z,997.72
2018-02-11T10:24:52.460Z,997.8
2018-02-11T10:26:02.417Z,997.74
2018-02-11T10:27:12.127Z,997.73
2018-02-11T10:28:21.833Z,997.71
2018-02-11T10:29:31.536Z,997.73
2018-02-11T10:30:41.504Z,997.66
2018-02-11T10:31:51.480Z,997.66
2018-02-11T10:33:01.428Z,997.64
2018-02-11T10:34:11.128Z,997.62
2018-02-11T10:35:21.089Z,997.63
2018-02-11T10:36:31.032Z,997.6
2018-02-11T10:37:40.985Z,997.59
2018-02-11T10:38:50.951Z,997.57
2018-02-11T10:40:00.911Z,997.47
2018-02-11T10:41:10.869Z,997.48
2018-02-11T10:42:20.825Z,997.56
2018-02-11T10:43:30.260Z,997.5
2018-02-11T10:44:40.226Z,997.47
2018-02-11T10:45:49.910Z,997.37
2018-02-11T10:46:59.877Z,997.4
2018-02-11T10:48:09.597Z,997.46
2018-02-11T10:49:19.308Z,997.44
2018-02-11T10:50:29.011Z,997.45
2018-02-11T10:51:38.755Z,997.26
2018-02-11T10:52:48.464Z,997.42
2018-02-11T10:53:58.424Z,997.43
2018-02-11T10:55:08.380Z,997.44
2018-02-11T10:56:18.337Z,997.34
2018-02-11T10:57:28.033Z,997.25
2018-02-11T10:58:37.741Z,997.41
2018-02-11T10:59:47.198Z,997.35
2018-02-11T11:00:56.893Z,997.24
2018-02-11T11:02:06.857Z,997.34
2018-02-11T11:03:16.816Z,997.23
2018-02-11T11:04:26.794Z,996.89
2018-02-11T11:05:36.755Z,997.12
2018-02-11T11:06:46.725Z,997.14
2018-02-11T11:07:56.686Z,997.16
2018-02-11T11:09:06.650Z,997.12
2018-02-11T11:10:16.358Z,996.97
2018-02-11T11:11:26.044Z,997.2
2018-02-11T11:12:35.998Z,997.25
2018-02-11T11:13:45.980Z,997.12
2018-02-11T11:14:55.679Z,997.13
2018-02-11T11:16:05.629Z,997
2018-02-11T11:17:15.342Z,997.15
2018-02-11T11:18:25.288Z,997.17
2018-02-11T11:19:35.250Z,997.17
2018-02-11T11:20:44.679Z,997.06
2018-02-11T11:21:54.182Z,997.06
2018-02-11T11:23:03.889Z,997.03
2018-02-11T11:24:13.580Z,996.98
2018-02-11T11:25:23.542Z,997.1
2018-02-11T11:26:33.256Z,997.13
2018-02-11T11:27:42.940Z,997.06
2018-02-11T11:28:52.902Z,997.09
2018-02-11T11:30:02.619Z,997.15
2018-02-11T11:31:12.626Z,997.18
2018-02-11T11:32:22.324Z,997.11
2018-02-11T11:33:32.537Z,997.11
2018-02-11T11:34:42.495Z,997.12
2018-02-11T11:35:52.464Z,997.08
2018-02-11T11:37:02.442Z,996.99
2018-02-11T11:38:12.403Z,997.07
2018-02-11T11:39:22.372Z,996.92
2018-02-11T11:40:31.803Z,996.96
2018-02-11T11:41:41.245Z,997.02
2018-02-11T11:42:51.220Z,997.04
2018-02-11T11:44:01.189Z,996.9
2018-02-11T11:45:11.140Z,996.9
2018-02-11T11:46:20.843Z,996.89
2018-02-11T11:47:30.797Z,996.95
2018-02-11T11:48:40.740Z,996.89
2018-02-11T11:49:50.441Z,997.06
2018-02-11T11:51:00.142Z,996.86
2018-02-11T11:52:09.897Z,996.83
2018-02-11T11:53:19.348Z,996.85
2018-02-11T11:54:29.304Z,996.83
2018-02-11T11:55:39.011Z,996.78
2018-02-11T11:56:48.708Z,996.86
2018-02-11T11:57:58.405Z,996.82
2018-02-11T11:59:08.097Z,996.81
2018-02-11T12:00:18.063Z,996.76
2018-02-11T12:01:27.766Z,996.75
2018-02-11T12:02:37.706Z,996.71
2018-02-11T12:03:47.661Z,996.69
2018-02-11T12:04:57.617Z,996.71
2018-02-11T12:06:07.582Z,996.69
2018-02-11T12:07:17.534Z,996.69
2018-02-11T12:08:27.497Z,996.7
2018-02-11T12:09:36.957Z,996.66
2018-02-11T12:10:46.900Z,996.65
2018-02-11T12:11:56.855Z,996.65
2018-02-11T12:13:06.836Z,996.66
2018-02-11T12:14:16.788Z,996.58
2018-02-11T12:15:26.487Z,996.55
2018-02-11T12:16:36.466Z,996.42
2018-02-11T12:17:46.411Z,996.64
2018-02-11T12:18:56.362Z,996.6
2018-02-11T12:20:06.327Z,996.6
2018-02-11T12:21:16.031Z,996.53
2018-02-11T12:22:25.746Z,996.38
2018-02-11T12:23:35.715Z,996.69
2018-02-11T12:24:45.665Z,996.56
2018-02-11T12:25:55.647Z,996.67
2018-02-11T12:27:05.412Z,996.49
2018-02-11T12:28:15.116Z,996.54
2018-02-11T12:29:25.071Z,996.49
2018-02-11T12:30:34.514Z,996.54
2018-02-11T12:31:44.462Z,996.24
2018-02-11T12:32:54.413Z,996.48
2018-02-11T12:34:04.123Z,996.44
2018-02-11T12:35:14.072Z,996.38
2018-02-11T12:36:24.021Z,996.49
2018-02-11T12:37:33.995Z,996.37
2018-02-11T12:38:43.692Z,996.37
2018-02-11T12:39:53.382Z,996.4
2018-02-11T12:41:03.344Z,996.41
2018-02-11T12:42:13.310Z,996.29
2018-02-11T12:43:23.260Z,996.38
2018-02-11T12:44:32.988Z,996.4
2018-02-11T12:45:42.968Z,996.34
2018-02-11T12:46:52.421Z,996.4
2018-02-11T12:48:02.126Z,996.42
2018-02-11T12:49:12.094Z,996.35
2018-02-11T12:50:22.055Z,996.4
2018-02-11T12:51:31.768Z,996.38
2018-02-11T12:52:41.725Z,996.33
2018-02-11T12:53:51.160Z,996.31
2018-02-11T12:55:01.118Z,996.34
2018-02-11T12:56:10.816Z,996.68
2018-02-11T12:57:20.762Z,996.33
2018-02-11T12:58:30.720Z,996.2
2018-02-11T12:59:40.661Z,996.52
2018-02-11T13:00:50.640Z,996.21
2018-02-11T13:02:00.346Z,996.38
2018-02-11T13:03:10.304Z,996.52
2018-02-11T13:04:20.263Z,996.37
2018-02-11T13:05:30.236Z,996.31
2018-02-11T13:06:40.185Z,996.29
2018-02-11T13:07:49.875Z,996.41
2018-02-11T13:08:59.997Z,996.29
2018-02-11T13:10:09.700Z,996.22
2018-02-11T13:11:19.668Z,996.33
2018-02-11T13:12:29.626Z,996.35
2018-02-11T13:13:39.569Z,996.32
2018-02-11T13:14:49.269Z,996.28
2018-02-11T13:15:58.962Z,996.3
2018-02-11T13:17:08.914Z,996.35
2018-02-11T13:18:18.858Z,996.27
2018-02-11T13:19:28.804Z,996.28
2018-02-11T13:20:38.766Z,996.21
2018-02-11T13:21:48.719Z,996.21
2018-02-11T13:22:58.671Z,996.24
2018-02-11T13:24:08.864Z,996.17
2018-02-11T13:25:18.572Z,996.21
2018-02-11T13:26:28.538Z,996.14
2018-02-11T13:27:38.488Z,996.26
2018-02-11T13:28:48.453Z,996.26
2018-02-11T13:29:58.419Z,996.14
2018-02-11T13:31:08.108Z,996.17
2018-02-11T13:32:18.069Z,996.14
2018-02-11T13:33:28.030Z,996.2
2018-02-11T13:34:37.718Z,996.15
2018-02-11T13:35:47.931Z,996.14
2018-02-11T13:36:57.381Z,996.2
2018-02-11T13:38:07.337Z,996.17
2018-02-11T13:39:16.786Z,996.21
2018-02-11T13:40:26.486Z,996.08
2018-02-11T13:41:36.348Z,996.1
2018-02-11T13:42:46.303Z,996.19
2018-02-11T13:43:56.004Z,996.21
2018-02-11T13:45:06.000Z,996.15
2018-02-11T13:46:15.971Z,996.14
2018-02-11T13:47:25.921Z,996.05
2018-02-11T13:48:35.865Z,996.14
2018-02-11T13:49:45.828Z,996.17
2018-02-11T13:50:55.791Z,996.13
2018-02-11T13:52:05.503Z,996.09
2018-02-11T13:53:15.227Z,996.12
2018-02-11T13:54:25.186Z,996.13
2018-02-11T13:55:34.374Z,996.03
2018-02-11T13:56:44.068Z,996.14
2018-02-11T13:57:54.005Z,996.13
2018-02-11T13:59:03.963Z,996.12
2018-02-11T14:00:13.909Z,996.04
2018-02-11T14:01:23.880Z,996.03
2018-02-11T14:02:33.851Z,996
2018-02-11T14:03:43.802Z,996.01
2018-02-11T14:04:53.768Z,996.04
2018-02-11T14:06:03.723Z,996.03
2018-02-11T14:07:13.692Z,995.97
2018-02-11T14:08:23.893Z,996.04
2018-02-11T14:09:33.845Z,996.07
2018-02-11T14:10:43.788Z,996.03
2018-02-11T14:11:53.241Z,996.01
2018-02-11T14:13:03.207Z,996
2018-02-11T14:14:13.238Z,996.04
2018-02-11T14:15:23.194Z,995.94
2018-02-11T14:16:33.156Z,995.99
2018-02-11T14:17:43.108Z,995.92
2018-02-11T14:18:52.815Z,995.96
2018-02-11T14:20:02.779Z,996.03
2018-02-11T14:21:12.716Z,995.91
2018-02-11T14:22:22.667Z,996
2018-02-11T14:23:32.351Z,995.94
2018-02-11T14:24:42.320Z,995.91
2018-02-11T14:25:52.059Z,995.94